M I D A S
Marine Information and Data Acquisition System
Tripno 1213 of the Zeeleeuw from 2007-02-19 08:25:30 to 2007-02-19 16:47:37
Back to CruiseResearch ActivitiesStationsMapUnderway DataData graphs

EquipmentUnitsComments
TimeDGPSUTC
LatitudeDGPSDM.mWGS84
LongitudeDGPSDM.mWGS84
SpeedMeteo Stationm/sRelative wind speed
DirectionMeteo StationdegRelative wind direction
TemperatureMeteo Stationdeg CelciusAir temperature
PressureMeteo StationPaAtmospheric pressure
HumidityMeteo Station%Relative humidity
Missing or incorrect values are displayed as -999
Metereological data collected by the RV Zeeleeuw from 2007-02-19 08:29:15 to 2007-02-19 16:56:02
                                                                                    Next 1000 lines
Time Latitude Longitude Speed Direction Temperature Pressure Humidity
2007-02-19 08:29:26 51°13.597 2°56.093 1.8 342 5.9 101380 100
2007-02-19 08:29:31 51°13.598 2°56.091 2.6 350 5.9 101380 100
2007-02-19 08:29:36 51°13.599 2°56.089 2.5 348 5.9 101370 100
2007-02-19 08:29:41 51°13.599 2°56.086 2.4 352 5.9 101370 100
2007-02-19 08:29:46 51°13.6 2°56.082 2.3 353 5.9 101370 100
2007-02-19 08:29:52 51°13.602 2°56.077 2.1 353 5.9 101370 100
2007-02-19 08:29:57 51°13.603 2°56.072 2.4 347 5.9 101370 100
2007-02-19 08:30:02 51°13.604 2°56.068 1.9 1 5.9 101370 100
2007-02-19 08:30:08 51°13.606 2°56.062 2 355 5.9 101370 100
2007-02-19 08:30:14 51°13.607 2°56.055 1.8 2 5.9 101370 100
2007-02-19 08:30:19 51°13.609 2°56.049 1.3 13 5.9 101370 100
2007-02-19 08:30:24 51°13.611 2°56.043 1.1 23 5.9 101370 100
2007-02-19 08:30:29 51°13.612 2°56.036 0.9 356 5.9 101370 100
2007-02-19 08:30:34 51°13.614 2°56.029 0.6 351 5.9 101370 100
2007-02-19 08:30:39 51°13.617 2°56.022 0.7 347 5.9 101370 100
2007-02-19 08:30:44 51°13.619 2°56.015 0.8 353 5.9 101370 100
2007-02-19 08:30:49 51°13.621 2°56.007 0.7 20 5.9 101380 100
2007-02-19 08:30:54 51°13.623 2°55.999 0.5 6 5.9 101380 100
2007-02-19 08:31:00 51°13.627 2°55.989 0.5 344 5.9 101370 100
2007-02-19 08:31:04 51°13.629 2°55.983 0.4 1 5.9 101370 100
2007-02-19 08:31:09 51°13.632 2°55.974 0.4 2 5.9 101370 100
2007-02-19 08:31:14 51°13.635 2°55.966 0.2 36 5.9 101370 100
2007-02-19 08:31:19 51°13.638 2°55.958 0.3 24 5.9 101370 100
2007-02-19 08:31:24 51°13.641 2°55.95 0.6 39 5.9 101370 100
2007-02-19 08:31:29 51°13.644 2°55.942 0.5 20 5.9 101370 100
2007-02-19 08:31:34 51°13.648 2°55.934 0.3 56 5.9 101370 100
2007-02-19 08:31:39 51°13.652 2°55.925 0.5 18 5.9 101370 100
2007-02-19 08:31:44 51°13.655 2°55.917 0.8 59 5.9 101370 100
2007-02-19 08:31:49 51°13.659 2°55.909 0.9 44 5.9 101370 100
2007-02-19 08:31:54 51°13.663 2°55.901 0.8 31 5.9 101370 100
2007-02-19 08:31:59 51°13.667 2°55.893 0.7 11 5.9 101370 100
2007-02-19 08:32:04 51°13.671 2°55.884 0.4 20 5.9 101370 100
2007-02-19 08:32:09 51°13.675 2°55.876 0.4 27 5.9 101370 100
2007-02-19 08:32:14 51°13.68 2°55.867 0.7 54 5.9 101370 100
2007-02-19 08:32:19 51°13.684 2°55.859 0.6 42 5.9 101370 100
2007-02-19 08:32:24 51°13.688 2°55.851 0.6 32 5.9 101370 100
2007-02-19 08:32:29 51°13.692 2°55.843 0.6 38 5.9 101370 100
2007-02-19 08:32:34 51°13.696 2°55.835 1 29 5.9 101370 100
2007-02-19 08:32:39 51°13.7 2°55.827 1.1 26 5.9 101370 100
2007-02-19 08:32:44 51°13.704 2°55.819 0.9 20 5.9 101370 100
2007-02-19 08:32:49 51°13.707 2°55.812 0.8 10 5.9 101370 100
2007-02-19 08:32:54 51°13.71 2°55.804 1 359 5.9 101370 100
2007-02-19 08:32:59 51°13.713 2°55.797 0.9 356 6 101370 100
2007-02-19 08:33:04 51°13.716 2°55.789 0.9 3 6 101370 100
2007-02-19 08:33:09 51°13.719 2°55.782 0.6 347 5.9 101370 100
2007-02-19 08:33:14 51°13.722 2°55.775 1 359 5.9 101370 100
2007-02-19 08:33:19 51°13.724 2°55.768 1.2 1 5.9 101370 100
2007-02-19 08:33:24 51°13.727 2°55.761 1.3 1 5.9 101370 100
2007-02-19 08:33:28 51°13.729 2°55.755 1.1 6 6 101370 100
2007-02-19 08:33:33 51°13.731 2°55.749 1.2 13 6 101370 100
2007-02-19 08:33:38 51°13.733 2°55.742 1.5 2 5.9 101370 100
2007-02-19 08:33:43 51°13.735 2°55.736 1.4 5 5.9 101370 100
2007-02-19 08:33:47 51°13.736 2°55.731 1.6 1 6 101370 100
2007-02-19 08:33:52 51°13.738 2°55.725 1.9 356 6 101370 100
2007-02-19 08:33:57 51°13.74 2°55.719 2.3 357 5.9 101370 100
2007-02-19 08:34:02 51°13.741 2°55.713 2.1 354 5.9 101370 100
2007-02-19 08:34:06 51°13.742 2°55.708 2 356 5.9 101380 100
2007-02-19 08:34:11 51°13.743 2°55.703 2.1 358 5.9 101380 100
2007-02-19 08:34:16 51°13.744 2°55.698 2.1 358 5.9 101370 100
2007-02-19 08:34:21 51°13.745 2°55.694 2 7 5.9 101370 100
2007-02-19 08:34:26 51°13.746 2°55.691 2 3 5.9 101370 100
2007-02-19 08:34:31 51°13.746 2°55.688 1.8 2 5.9 101370 100
2007-02-19 08:34:36 51°13.747 2°55.686 2.1 3 5.9 101370 100
2007-02-19 08:34:41 51°13.748 2°55.685 1.8 5 5.9 101370 100
2007-02-19 08:34:45 51°13.748 2°55.684 2.1 8 5.9 101370 100
2007-02-19 08:34:51 51°13.749 2°55.684 2 9 5.9 101370 100
2007-02-19 08:34:56 51°13.75 2°55.684 1.8 7 5.9 101370 100
2007-02-19 08:35:01 51°13.751 2°55.685 2 8 5.9 101370 100
2007-02-19 08:35:05 51°13.752 2°55.685 2.1 13 5.9 101370 100
2007-02-19 08:35:11 51°13.753 2°55.685 2.7 16 5.9 101370 100
2007-02-19 08:35:16 51°13.754 2°55.685 2.7 21 5.9 101370 100
2007-02-19 08:35:21 51°13.754 2°55.684 2.8 21 5.9 101370 100
2007-02-19 08:35:26 51°13.754 2°55.683 2.9 20 5.9 101370 100
2007-02-19 08:35:31 51°13.754 2°55.681 2.2 33 5.9 101370 100
2007-02-19 08:35:36 51°13.754 2°55.679 2.5 35 5.9 101370 100
2007-02-19 08:35:41 51°13.753 2°55.676 2.2 43 5.9 101370 100
2007-02-19 08:35:46 51°13.753 2°55.674 2.6 36 6 101370 100
2007-02-19 08:35:51 51°13.752 2°55.672 2.8 36 6 101370 100
2007-02-19 08:35:55 51°13.751 2°55.671 2.8 35 5.9 101370 100
2007-02-19 08:36:01 51°13.751 2°55.669 2.3 23 5.9 101370 100
2007-02-19 08:36:06 51°13.752 2°55.668 2.1 19 5.9 101370 100
2007-02-19 08:36:11 51°13.753 2°55.668 1.9 34 5.9 101370 100
2007-02-19 08:36:16 51°13.754 2°55.668 2 28 6 101370 100
2007-02-19 08:36:21 51°13.756 2°55.668 2.4 33 6 101370 100
2007-02-19 08:36:26 51°13.758 2°55.667 2.3 32 6 101370 100
2007-02-19 08:36:31 51°13.76 2°55.667 2.2 40 6 101370 100
2007-02-19 08:36:36 51°13.762 2°55.666 1.8 40 6 101370 100
2007-02-19 08:36:41 51°13.765 2°55.665 1.6 57 6 101370 100
2007-02-19 08:36:46 51°13.769 2°55.664 1.6 21 5.9 101370 100
2007-02-19 08:36:51 51°13.772 2°55.662 1.1 40 5.9 101370 100
2007-02-19 08:36:56 51°13.776 2°55.659 1.1 26 6 101370 100
2007-02-19 08:37:01 51°13.781 2°55.656 0.7 40 6 101370 100
2007-02-19 08:37:06 51°13.786 2°55.653 0.6 21 6 101370 100
2007-02-19 08:37:11 51°13.792 2°55.65 0.4 30 6 101370 100
2007-02-19 08:37:16 51°13.799 2°55.646 0.2 27 6 101370 100
2007-02-19 08:37:21 51°13.806 2°55.641 0.2 24 6 101370 100
2007-02-19 08:37:25 51°13.812 2°55.637 0.2 24 5.9 101370 100
2007-02-19 08:37:31 51°13.822 2°55.63 0.2 21 5.9 101370 100
2007-02-19 08:37:36 51°13.831 2°55.624 0.3 19 6 101370 100
2007-02-19 08:37:41 51°13.84 2°55.617 0.5 16 6 101370 100
2007-02-19 08:37:45 51°13.848 2°55.612 0.7 349 6 101370 100
2007-02-19 08:37:51 51°13.859 2°55.604 1.3 338 6 101370 100
2007-02-19 08:37:56 51°13.87 2°55.597 1.6 335 6 101370 100
2007-02-19 08:38:01 51°13.88 2°55.59 1.9 328 6 101370 100
2007-02-19 08:38:05 51°13.889 2°55.584 2.1 349 6 101370 100
2007-02-19 08:38:11 51°13.902 2°55.576 1.5 352 6 101370 100
2007-02-19 08:38:15 51°13.911 2°55.57 1.3 354 5.9 101370 100
2007-02-19 08:38:21 51°13.924 2°55.562 1.3 8 5.9 101370 100
2007-02-19 08:38:26 51°13.935 2°55.555 1.4 5 6 101370 100
2007-02-19 08:38:31 51°13.947 2°55.549 1.6 352 6 101370 100
2007-02-19 08:38:36 51°13.959 2°55.542 1.5 351 6 101370 100
2007-02-19 08:38:41 51°13.971 2°55.536 1.5 349 6 101370 100
2007-02-19 08:38:46 51°13.983 2°55.529 2.1 346 6 101370 100
2007-02-19 08:38:51 51°13.995 2°55.523 2.5 349 6 101370 100
2007-02-19 08:38:56 51°14.007 2°55.516 2 342 5.9 101370 100
2007-02-19 08:39:01 51°14.02 2°55.509 1.5 343 5.9 101370 100
2007-02-19 08:39:06 51°14.032 2°55.503 1.8 344 6 101370 100
2007-02-19 08:39:11 51°14.044 2°55.495 2.2 343 6 101370 100
2007-02-19 08:39:16 51°14.056 2°55.488 2.5 347 6 101370 100
2007-02-19 08:39:21 51°14.067 2°55.48 2.1 348 6 101370 100
2007-02-19 08:39:26 51°14.079 2°55.472 2.9 342 5.9 101370 100
2007-02-19 08:39:31 51°14.091 2°55.463 2.1 338 5.9 101370 100
2007-02-19 08:39:36 51°14.102 2°55.455 2 341 6 101370 100
2007-02-19 08:39:41 51°14.114 2°55.446 2.2 339 6 101370 100
2007-02-19 08:39:46 51°14.126 2°55.438 2.2 343 5.9 101370 100
2007-02-19 08:39:51 51°14.137 2°55.429 2 346 5.9 101370 100
2007-02-19 08:39:56 51°14.148 2°55.419 3 337 5.9 101370 100
2007-02-19 08:40:01 51°14.159 2°55.409 2.4 345 5.9 101370 100
2007-02-19 08:40:06 51°14.17 2°55.398 2.4 342 6 101370 100
2007-02-19 08:40:11 51°14.18 2°55.387 1.9 344 6 101370 100
2007-02-19 08:40:16 51°14.191 2°55.376 2 336 6 101370 100
2007-02-19 08:40:21 51°14.201 2°55.364 2.2 334 6 101370 100
2007-02-19 08:40:26 51°14.211 2°55.351 2 331 6 101360 100
2007-02-19 08:40:31 51°14.221 2°55.338 2 286 6 101360 100
2007-02-19 08:40:36 51°14.23 2°55.325 2.2 330 6 101370 100
2007-02-19 08:40:41 51°14.24 2°55.312 2 328 6 101370 100
2007-02-19 08:40:47 51°14.25 2°55.295 1.8 329 6 101370 100
2007-02-19 08:40:52 51°14.259 2°55.28 2.2 315 6 101370 100
2007-02-19 08:40:58 51°14.269 2°55.262 2.1 316 6 101360 100
2007-02-19 08:41:03 51°14.277 2°55.247 2.1 328 6 101360 100
2007-02-19 08:41:08 51°14.286 2°55.232 2.2 326 6 101370 100
2007-02-19 08:41:14 51°14.295 2°55.212 2.2 325 6 101370 100
2007-02-19 08:41:19 51°14.302 2°55.196 2 325 6 101370 100
2007-02-19 08:41:24 51°14.31 2°55.18 1.9 322 6 101370 100
2007-02-19 08:41:29 51°14.317 2°55.164 2.3 24 6 101360 100
2007-02-19 08:41:34 51°14.325 2°55.148 2.3 304 6 101360 100
2007-02-19 08:41:38 51°14.331 2°55.135 2.4 321 6 101360 100
2007-02-19 08:41:43 51°14.339 2°55.119 1.7 325 6 101360 100
2007-02-19 08:41:48 51°14.347 2°55.102 1.7 27 6 101360 100
2007-02-19 08:41:53 51°14.355 2°55.085 2.2 38 6 101360 100
2007-02-19 08:41:57 51°14.362 2°55.071 2.3 316 6 101360 100
2007-02-19 08:42:02 51°14.371 2°55.053 2.4 309 6 101360 100
2007-02-19 08:42:07 51°14.38 2°55.035 3 317 6 101370 100
2007-02-19 08:42:12 51°14.388 2°55.015 2.8 307 6 101370 100
2007-02-19 08:42:17 51°14.396 2°54.995 2.8 323 6 101370 100
2007-02-19 08:42:21 51°14.401 2°54.978 3.4 303 6 101370 100
2007-02-19 08:42:26 51°14.408 2°54.956 3.6 321 6 101360 100
2007-02-19 08:42:31 51°14.414 2°54.933 3.6 285 6 101360 100
2007-02-19 08:42:35 51°14.418 2°54.914 4.5 317 6 101360 100
2007-02-19 08:42:41 51°14.426 2°54.886 4 316 6 101360 100
2007-02-19 08:42:46 51°14.432 2°54.862 3.8 315 6 101360 100
2007-02-19 08:42:51 51°14.437 2°54.838 4.9 36 6 101360 100
2007-02-19 08:42:55 51°14.441 2°54.818 4.8 24 6 101360 100
2007-02-19 08:43:01 51°14.445 2°54.788 4.6 31 6 101360 100
2007-02-19 08:43:06 51°14.447 2°54.762 5.9 21 6 101360 100
2007-02-19 08:43:11 51°14.448 2°54.736 6.2 36 6 101360 100
2007-02-19 08:43:16 51°14.448 2°54.71 5.6 20 6 101360 100
2007-02-19 08:43:21 51°14.448 2°54.684 5 307 6 101360 100
2007-02-19 08:43:26 51°14.447 2°54.658 5.1 20 6 101360 100
2007-02-19 08:43:31 51°14.446 2°54.632 4.6 317 6 101360 100
2007-02-19 08:43:36 51°14.444 2°54.605 4.9 316 6 101360 100
2007-02-19 08:43:41 51°14.441 2°54.58 5.9 316 6 101360 100
2007-02-19 08:43:45 51°14.438 2°54.559 5.9 24 6 101350 100
2007-02-19 08:43:51 51°14.432 2°54.529 5.9 318 6 101350 100
2007-02-19 08:43:56 51°14.426 2°54.504 6.5 320 6 101350 100
2007-02-19 08:44:01 51°14.419 2°54.48 6 322 6 101350 100
2007-02-19 08:44:06 51°14.412 2°54.456 5.5 320 6 101360 100
2007-02-19 08:44:11 51°14.403 2°54.433 6.5 306 6 101360 100
2007-02-19 08:44:16 51°14.395 2°54.411 6.9 317 6 101350 100
2007-02-19 08:44:21 51°14.386 2°54.388 7.8 316 6 101350 100
2007-02-19 08:44:26 51°14.377 2°54.366 7.8 24 6 101350 100
2007-02-19 08:44:31 51°14.368 2°54.343 7.5 286 6 101350 100
2007-02-19 08:44:35 51°14.361 2°54.325 7.4 316 6 101350 100
2007-02-19 08:44:41 51°14.351 2°54.298 6.6 317 6 101350 100
2007-02-19 08:44:46 51°14.342 2°54.275 7.1 316 6 101350 100
2007-02-19 08:44:51 51°14.333 2°54.252 6.1 33 6 101350 100
2007-02-19 08:44:56 51°14.325 2°54.229 6.5 21 6 101340 100
2007-02-19 08:45:01 51°14.316 2°54.206 6.9 36 6 101340 100
2007-02-19 08:45:05 51°14.309 2°54.187 6.6 21 6 101340 100
2007-02-19 08:45:11 51°14.299 2°54.159 6.6 316 6 101340 100
2007-02-19 08:45:16 51°14.29 2°54.136 6.5 317 6 101340 100
2007-02-19 08:45:21 51°14.281 2°54.113 7.8 305 6 101340 100
2007-02-19 08:45:26 51°14.273 2°54.09 7.2 316 6 101340 100
2007-02-19 08:45:31 51°14.264 2°54.066 8 34 6 101340 100
2007-02-19 08:45:36 51°14.255 2°54.043 7.4 25 6 101340 100
2007-02-19 08:45:41 51°14.246 2°54.02 7.3 310 6 101340 100
2007-02-19 08:45:45 51°14.239 2°54.001 7.5 317 6 101340 100
2007-02-19 08:45:51 51°14.228 2°53.973 7.9 309 6 101340 100
2007-02-19 08:45:56 51°14.22 2°53.949 8.4 21 6 101340 100
2007-02-19 08:46:01 51°14.211 2°53.926 7.3 305 6 101340 100
2007-02-19 08:46:06 51°14.202 2°53.902 7.2 25 6 101340 100
2007-02-19 08:46:11 51°14.193 2°53.879 7.3 36 6 101340 100
2007-02-19 08:46:16 51°14.184 2°53.855 7 24 6 101340 100
2007-02-19 08:46:21 51°14.175 2°53.832 7.4 303 6 101340 100
2007-02-19 08:46:25 51°14.168 2°53.813 7.5 27 6 101340 100
2007-02-19 08:46:31 51°14.157 2°53.785 7 279 6 101340 100
2007-02-19 08:46:36 51°14.148 2°53.762 7 25 6 101340 100
2007-02-19 08:46:41 51°14.139 2°53.738 6.6 306 6 101340 100
2007-02-19 08:46:45 51°14.132 2°53.719 6.6 316 6 101340 100
2007-02-19 08:46:51 51°14.121 2°53.691 6.7 304 6 101340 100
2007-02-19 08:46:56 51°14.112 2°53.667 6.6 20 6 101340 100
2007-02-19 08:47:01 51°14.103 2°53.643 7.3 38 6 101340 100
2007-02-19 08:47:06 51°14.094 2°53.62 7.1 27 6 101340 100
2007-02-19 08:47:11 51°14.086 2°53.596 7.8 310 6 101340 100
2007-02-19 08:47:15 51°14.079 2°53.577 7.7 24 6 101340 100
2007-02-19 08:47:21 51°14.068 2°53.549 6.9 35 6 101340 100
2007-02-19 08:47:26 51°14.059 2°53.525 6.9 21 6 101340 100
2007-02-19 08:47:31 51°14.05 2°53.501 7.2 36 6 101340 100
2007-02-19 08:47:36 51°14.041 2°53.477 7.2 25 6 101340 100
2007-02-19 08:47:41 51°14.032 2°53.454 7.7 305 6 101340 100
2007-02-19 08:47:46 51°14.023 2°53.43 7.6 316 6 101340 100
2007-02-19 08:47:51 51°14.014 2°53.406 7.3 319 6 101340 100
2007-02-19 08:47:56 51°14.006 2°53.383 7.7 317 6 101340 100
2007-02-19 08:48:01 51°13.997 2°53.359 6.7 308 6 101340 100
2007-02-19 08:48:06 51°13.989 2°53.336 7.3 316 6 101340 100
2007-02-19 08:48:11 51°13.98 2°53.312 6.8 38 6 101340 100
2007-02-19 08:48:16 51°13.971 2°53.288 7.7 315 6 101340 100
2007-02-19 08:48:21 51°13.962 2°53.264 8.2 34 6 101340 100
2007-02-19 08:48:26 51°13.953 2°53.24 7.7 21 6.1 101340 100
2007-02-19 08:48:31 51°13.944 2°53.216 6.9 36 6.1 101340 100
2007-02-19 08:48:36 51°13.935 2°53.192 6.8 18 6 101340 100
2007-02-19 08:48:41 51°13.926 2°53.168 7.3 31 6 101340 100
2007-02-19 08:48:46 51°13.917 2°53.144 7.2 24 6 101330 100
2007-02-19 08:48:51 51°13.909 2°53.12 7.2 303 6 101330 100
2007-02-19 08:48:56 51°13.899 2°53.096 6.8 21 6 101330 100
2007-02-19 08:49:01 51°13.891 2°53.072 6.4 33 6 101330 100
2007-02-19 08:49:06 51°13.882 2°53.048 6.9 25 6.1 101330 100
2007-02-19 08:49:11 51°13.873 2°53.024 7.2 307 6.1 101330 100
2007-02-19 08:49:16 51°13.864 2°52.999 6.7 21 6 101330 100
2007-02-19 08:49:21 51°13.855 2°52.975 6.4 315 6 101330 100
2007-02-19 08:49:26 51°13.846 2°52.951 7.1 317 6 101330 100
2007-02-19 08:49:31 51°13.837 2°52.927 6.7 319 6 101330 100
2007-02-19 08:49:36 51°13.828 2°52.903 7 20 6 101330 100
2007-02-19 08:49:41 51°13.819 2°52.878 8 36 6 101330 100
2007-02-19 08:49:45 51°13.812 2°52.859 8.3 21 6 101330 100
2007-02-19 08:49:51 51°13.802 2°52.83 7.8 36 6 101330 100
2007-02-19 08:49:56 51°13.793 2°52.805 7.8 23 6 101330 100
2007-02-19 08:50:01 51°13.784 2°52.78 7.3 304 6 101330 100
2007-02-19 08:50:06 51°13.774 2°52.755 7.9 20 6 101330 100
2007-02-19 08:50:11 51°13.765 2°52.729 7.2 318 6 101330 100
2007-02-19 08:50:16 51°13.755 2°52.703 7.2 319 6 101330 100
2007-02-19 08:50:21 51°13.746 2°52.676 7.9 306 6 101330 100
2007-02-19 08:50:26 51°13.736 2°52.649 7.5 24 6.1 101330 100
2007-02-19 08:50:31 51°13.726 2°52.622 7.2 319 6.1 101330 100
2007-02-19 08:50:36 51°13.716 2°52.595 7.4 315 6.1 101330 100
2007-02-19 08:50:41 51°13.706 2°52.568 7.8 318 6.1 101330 100
2007-02-19 08:50:46 51°13.696 2°52.54 7.8 318 6.1 101330 100
2007-02-19 08:50:51 51°13.686 2°52.513 8.1 320 6.1 101330 100
2007-02-19 08:50:56 51°13.675 2°52.485 8.1 316 6.1 101330 100
2007-02-19 08:51:01 51°13.665 2°52.458 8.5 36 6.1 101330 100
2007-02-19 08:51:06 51°13.655 2°52.43 9.3 317 6.1 101330 100
2007-02-19 08:51:11 51°13.644 2°52.403 9.1 306 6.1 101330 100
2007-02-19 08:51:16 51°13.633 2°52.375 8.6 316 6.1 101330 100
2007-02-19 08:51:21 51°13.623 2°52.347 8.6 318 6.1 101330 100
2007-02-19 08:51:26 51°13.612 2°52.319 8.6 319 6.1 101330 100
2007-02-19 08:51:31 51°13.602 2°52.291 7.6 304 6.1 101330 100
2007-02-19 08:51:36 51°13.592 2°52.263 7.8 317 6.1 101330 100
2007-02-19 08:51:41 51°13.581 2°52.235 8.6 34 6.1 101330 100
2007-02-19 08:51:46 51°13.571 2°52.207 8.1 315 6.2 101330 100
2007-02-19 08:51:51 51°13.56 2°52.178 7.5 316 6.2 101330 100
2007-02-19 08:51:56 51°13.551 2°52.15 7.6 21 6.1 101330 100
2007-02-19 08:52:01 51°13.541 2°52.121 8.4 317 6.1 101330 100
2007-02-19 08:52:06 51°13.531 2°52.092 7.9 316 6.1 101330 100
2007-02-19 08:52:11 51°13.521 2°52.063 8.7 318 6.1 101330 100
2007-02-19 08:52:16 51°13.512 2°52.033 9.3 316 6.1 101330 100
2007-02-19 08:52:21 51°13.502 2°52.004 8.8 309 6.1 101330 100
2007-02-19 08:52:26 51°13.493 2°51.975 8.6 318 6.1 101330 100
2007-02-19 08:52:31 51°13.484 2°51.945 8.5 317 6.1 101330 100
2007-02-19 08:52:36 51°13.474 2°51.916 9.6 315 6.1 101330 100
2007-02-19 08:52:41 51°13.465 2°51.887 9.7 305 6.1 101330 100
2007-02-19 08:52:46 51°13.454 2°51.858 9.3 317 6.1 101320 100
2007-02-19 08:52:51 51°13.444 2°51.829 9 32 6.1 101320 100
2007-02-19 08:52:56 51°13.434 2°51.8 8.8 25 6.1 101330 100
2007-02-19 08:53:01 51°13.424 2°51.771 7.9 316 6.1 101330 100
2007-02-19 08:53:06 51°13.414 2°51.743 8.5 317 6.1 101320 100
2007-02-19 08:53:11 51°13.404 2°51.714 9.2 319 6.1 101320 100
2007-02-19 08:53:16 51°13.394 2°51.685 9.2 318 6.1 101320 100
2007-02-19 08:53:21 51°13.383 2°51.656 8.6 318 6.1 101320 100
2007-02-19 08:53:26 51°13.374 2°51.627 9 317 6.1 101330 100
2007-02-19 08:53:31 51°13.363 2°51.598 9 305 6.1 101330 100
2007-02-19 08:53:36 51°13.354 2°51.569 8.3 318 6.1 101330 100
2007-02-19 08:53:41 51°13.344 2°51.54 8.6 317 6.1 101330 100
2007-02-19 08:53:46 51°13.334 2°51.51 9.2 318 6.1 101330 100
2007-02-19 08:53:51 51°13.325 2°51.48 9 303 6.1 101330 100
2007-02-19 08:53:56 51°13.316 2°51.451 8.4 318 6.1 101330 100
2007-02-19 08:54:01 51°13.307 2°51.421 8.8 318 6.1 101330 100
2007-02-19 08:54:06 51°13.297 2°51.392 8.4 316 6.1 101330 100
2007-02-19 08:54:11 51°13.287 2°51.362 8.1 36 6.1 101330 100
2007-02-19 08:54:16 51°13.277 2°51.333 8.3 317 6.2 101330 100
2007-02-19 08:54:21 51°13.267 2°51.304 8.6 316 6.2 101330 100
2007-02-19 08:54:26 51°13.257 2°51.275 8.8 24 6.1 101330 100
2007-02-19 08:54:31 51°13.247 2°51.246 8.4 316 6.1 101330 100
2007-02-19 08:54:36 51°13.236 2°51.218 8.7 318 6.1 101330 100
2007-02-19 08:54:41 51°13.226 2°51.189 8.7 305 6.1 101330 100
2007-02-19 08:54:46 51°13.215 2°51.16 9.2 22 6.1 101320 100
2007-02-19 08:54:51 51°13.205 2°51.131 8.5 317 6.1 101320 100
2007-02-19 08:54:56 51°13.195 2°51.101 9.3 317 6.2 101330 100
2007-02-19 08:55:01 51°13.185 2°51.072 8.9 306 6.2 101330 100
2007-02-19 08:55:06 51°13.176 2°51.042 9 315 6.2 101330 100
2007-02-19 08:55:11 51°13.166 2°51.013 9 302 6.2 101330 100
2007-02-19 08:55:16 51°13.157 2°50.983 9.1 317 6.2 101330 100
2007-02-19 08:55:21 51°13.147 2°50.953 9.4 308 6.2 101330 100
2007-02-19 08:55:26 51°13.138 2°50.923 8.9 24 6.2 101330 100
2007-02-19 08:55:31 51°13.128 2°50.893 9.2 281 6.2 101330 100
2007-02-19 08:55:36 51°13.119 2°50.864 8 23 6.2 101330 100
2007-02-19 08:55:41 51°13.109 2°50.834 8.1 310 6.2 101330 100
2007-02-19 08:55:46 51°13.099 2°50.805 8.5 317 6.2 101320 100
2007-02-19 08:55:51 51°13.089 2°50.775 8.6 304 6.2 101320 100
2007-02-19 08:55:56 51°13.079 2°50.746 8.3 315 6.1 101320 100
2007-02-19 08:56:01 51°13.069 2°50.717 8.2 303 6.1 101320 100
2007-02-19 08:56:06 51°13.059 2°50.687 8.7 317 6.1 101320 100
2007-02-19 08:56:11 51°13.049 2°50.658 8.2 307 6.1 101320 100
2007-02-19 08:56:15 51°13.041 2°50.635 8.5 21 6.1 101320 100
2007-02-19 08:56:21 51°13.029 2°50.599 8.5 305 6.1 101320 100
2007-02-19 08:56:26 51°13.019 2°50.57 8.8 27 6.2 101330 100
2007-02-19 08:56:31 51°13.009 2°50.54 8.7 308 6.2 101330 100
2007-02-19 08:56:36 51°12.999 2°50.511 8.6 19 6.1 101320 100
2007-02-19 08:56:41 51°12.99 2°50.481 8.2 307 6.1 101320 100
2007-02-19 08:56:46 51°12.98 2°50.452 9.1 316 6.2 101320 100
2007-02-19 08:56:51 51°12.97 2°50.422 8.4 304 6.2 101320 100
2007-02-19 08:56:56 51°12.96 2°50.392 7.8 19 6.2 101320 100
2007-02-19 08:57:01 51°12.951 2°50.362 8.6 302 6.2 101320 100
2007-02-19 08:57:06 51°12.941 2°50.332 8.6 317 6.2 101330 100
2007-02-19 08:57:11 51°12.931 2°50.303 8.7 308 6.2 101330 100
2007-02-19 08:57:16 51°12.921 2°50.273 9 317 6.2 101320 100
2007-02-19 08:57:21 51°12.912 2°50.243 8.9 307 6.2 101320 100
2007-02-19 08:57:26 51°12.902 2°50.213 9.1 316 6.2 101320 100
2007-02-19 08:57:31 51°12.892 2°50.183 8.4 281 6.2 101320 100
2007-02-19 08:57:36 51°12.882 2°50.154 8 317 6.2 101320 100
2007-02-19 08:57:41 51°12.873 2°50.124 8.7 310 6.2 101320 100
2007-02-19 08:57:46 51°12.862 2°50.095 8.5 317 6.2 101320 100
2007-02-19 08:57:51 51°12.853 2°50.065 8.7 307 6.2 101320 100
2007-02-19 08:57:56 51°12.842 2°50.036 8.9 317 6.2 101320 100
2007-02-19 08:58:01 51°12.832 2°50.006 8.7 308 6.2 101320 100
2007-02-19 08:58:06 51°12.822 2°49.977 8.8 317 6.2 101320 100
2007-02-19 08:58:11 51°12.812 2°49.947 8.5 303 6.2 101320 100
2007-02-19 08:58:16 51°12.802 2°49.918 8.6 317 6.2 101320 100
2007-02-19 08:58:21 51°12.792 2°49.888 8.1 307 6.2 101320 100
2007-02-19 08:58:25 51°12.784 2°49.864 9.2 315 6.2 101320 100
2007-02-19 08:58:31 51°12.772 2°49.829 8.7 305 6.2 101320 100
2007-02-19 08:58:35 51°12.765 2°49.804 9.4 317 6.2 101320 100
2007-02-19 08:58:41 51°12.753 2°49.769 8.3 310 6.2 101320 100
2007-02-19 08:58:46 51°12.743 2°49.739 9.5 318 6.2 101320 100
2007-02-19 08:58:51 51°12.733 2°49.709 9 302 6.2 101320 100
2007-02-19 08:58:56 51°12.724 2°49.679 9.2 317 6.2 101320 100
2007-02-19 08:59:01 51°12.714 2°49.649 9.3 302 6.2 101320 100
2007-02-19 08:59:06 51°12.704 2°49.619 8.9 318 6.2 101320 100
2007-02-19 08:59:11 51°12.693 2°49.59 9 305 6.2 101320 100
2007-02-19 08:59:16 51°12.683 2°49.56 8.4 316 6.2 101320 100
2007-02-19 08:59:21 51°12.673 2°49.53 8.3 306 6.2 101320 100
2007-02-19 08:59:26 51°12.663 2°49.5 8.8 316 6.2 101320 100
2007-02-19 08:59:31 51°12.653 2°49.47 8.5 277 6.2 101320 100
2007-02-19 08:59:36 51°12.643 2°49.44 9.2 318 6.2 101320 100
2007-02-19 08:59:41 51°12.633 2°49.41 9.6 303 6.2 101320 100
2007-02-19 08:59:46 51°12.624 2°49.38 8.8 315 6.2 101320 100
2007-02-19 08:59:51 51°12.614 2°49.35 8.8 304 6.2 101320 100
2007-02-19 08:59:56 51°12.603 2°49.32 8.4 317 6.2 101320 100
2007-02-19 09:00:01 51°12.593 2°49.29 8.3 304 6.2 101320 100
2007-02-19 09:00:06 51°12.583 2°49.26 8.5 316 6.2 101320 100
2007-02-19 09:00:11 51°12.573 2°49.231 8.9 306 6.2 101320 100
2007-02-19 09:00:16 51°12.563 2°49.201 8.6 317 6.2 101320 100
2007-02-19 09:00:21 51°12.553 2°49.171 9.2 305 6.2 101320 100
2007-02-19 09:00:26 51°12.543 2°49.141 9.5 316 6.2 101320 100
2007-02-19 09:00:31 51°12.533 2°49.111 9 307 6.2 101320 100
2007-02-19 09:00:36 51°12.523 2°49.081 9.7 316 6.2 101320 100
2007-02-19 09:00:41 51°12.513 2°49.05 8.6 310 6.2 101320 100
2007-02-19 09:00:46 51°12.503 2°49.02 8.9 317 6.2 101320 100
2007-02-19 09:00:51 51°12.493 2°48.99 9.3 310 6.2 101320 100
2007-02-19 09:00:55 51°12.485 2°48.966 8.8 316 6.2 101310 100
2007-02-19 09:01:01 51°12.473 2°48.93 9.3 310 6.2 101310 100
2007-02-19 09:01:06 51°12.463 2°48.901 8.8 317 6.2 101320 100
2007-02-19 09:01:11 51°12.453 2°48.871 8.5 306 6.2 101320 100
2007-02-19 09:01:16 51°12.442 2°48.841 8.4 27 6.2 101320 100
2007-02-19 09:01:21 51°12.432 2°48.811 8.5 303 6.2 101320 100
2007-02-19 09:01:26 51°12.422 2°48.781 8.6 317 6.2 101320 100
2007-02-19 09:01:31 51°12.412 2°48.752 8.7 281 6.2 101320 100
2007-02-19 09:01:36 51°12.402 2°48.722 8.5 317 6.2 101310 100
2007-02-19 09:01:41 51°12.392 2°48.692 8.8 304 6.2 101310 100
2007-02-19 09:01:46 51°12.382 2°48.663 9.3 316 6.2 101320 100
2007-02-19 09:01:51 51°12.372 2°48.633 9.1 303 6.2 101320 100
2007-02-19 09:01:56 51°12.362 2°48.603 9.3 22 6.2 101320 100
2007-02-19 09:02:01 51°12.352 2°48.573 9 310 6.2 101320 100
2007-02-19 09:02:06 51°12.342 2°48.544 9.4 316 6.2 101320 100
2007-02-19 09:02:11 51°12.332 2°48.514 8.7 304 6.2 101320 100
2007-02-19 09:02:16 51°12.322 2°48.484 9.9 316 6.2 101310 100
2007-02-19 09:02:21 51°12.312 2°48.455 9.6 309 6.2 101310 100
2007-02-19 09:02:26 51°12.301 2°48.425 8.8 317 6.2 101310 100
2007-02-19 09:02:31 51°12.291 2°48.396 8.6 309 6.2 101310 100
2007-02-19 09:02:36 51°12.281 2°48.366 8.6 26 6.2 101310 100
2007-02-19 09:02:41 51°12.27 2°48.336 9.2 302 6.2 101310 100
2007-02-19 09:02:46 51°12.26 2°48.306 9 316 6.2 101310 100
2007-02-19 09:02:51 51°12.25 2°48.277 8 307 6.2 101310 100
2007-02-19 09:02:55 51°12.242 2°48.253 8.2 317 6.2 101320 100
2007-02-19 09:03:01 51°12.23 2°48.217 8.6 306 6.2 101320 100
2007-02-19 09:03:06 51°12.22 2°48.187 8.7 318 6.2 101310 100
2007-02-19 09:03:11 51°12.21 2°48.158 8.2 307 6.2 101310 100
2007-02-19 09:03:15 51°12.202 2°48.134 8 316 6.2 101310 100
2007-02-19 09:03:21 51°12.191 2°48.098 9.4 304 6.2 101310 100
2007-02-19 09:03:26 51°12.181 2°48.067 8.9 316 6.2 101320 100
2007-02-19 09:03:31 51°12.172 2°48.036 8.7 280 6.2 101320 100
2007-02-19 09:03:36 51°12.162 2°48.006 8.4 21 6.2 101320 100
2007-02-19 09:03:41 51°12.153 2°47.976 7.3 308 6.2 101320 100
2007-02-19 09:03:46 51°12.144 2°47.945 7.5 315 6.2 101320 100
2007-02-19 09:03:51 51°12.135 2°47.914 7.2 304 6.2 101320 100
2007-02-19 09:03:56 51°12.126 2°47.884 8.3 318 6.2 101320 100
2007-02-19 09:04:01 51°12.117 2°47.853 8.7 305 6.2 101320 100
2007-02-19 09:04:06 51°12.108 2°47.823 8.2 23 6.2 101310 100
2007-02-19 09:04:11 51°12.099 2°47.792 7.8 308 6.2 101310 100
2007-02-19 09:04:16 51°12.09 2°47.762 8.4 319 6.2 101320 100
2007-02-19 09:04:21 51°12.081 2°47.731 8.4 305 6.2 101320 100
2007-02-19 09:04:26 51°12.072 2°47.7 8.1 319 6.2 101310 100
2007-02-19 09:04:31 51°12.063 2°47.67 9.1 308 6.2 101310 100
2007-02-19 09:04:36 51°12.054 2°47.64 8.7 317 6.2 101310 100
2007-02-19 09:04:41 51°12.045 2°47.609 8.8 307 6.2 101310 100
2007-02-19 09:04:46 51°12.036 2°47.579 8.6 318 6.2 101320 100
2007-02-19 09:04:51 51°12.027 2°47.548 8.8 302 6.2 101320 100
2007-02-19 09:04:56 51°12.017 2°47.518 8.7 317 6.2 101310 100
2007-02-19 09:05:01 51°12.008 2°47.487 9.6 308 6.2 101310 100
2007-02-19 09:05:06 51°12 2°47.457 9.9 22 6.2 101310 100
2007-02-19 09:05:11 51°11.991 2°47.426 9.7 304 6.2 101310 100
2007-02-19 09:05:15 51°11.983 2°47.402 8.7 24 6.2 101320 100
2007-02-19 09:05:21 51°11.973 2°47.365 9.3 310 6.2 101320 100
2007-02-19 09:05:26 51°11.964 2°47.334 9.2 318 6.2 101320 100
2007-02-19 09:05:31 51°11.955 2°47.304 8.6 281 6.2 101320 100
2007-02-19 09:05:36 51°11.945 2°47.274 8.6 318 6.2 101310 100
2007-02-19 09:05:41 51°11.936 2°47.243 9.5 309 6.2 101310 100
2007-02-19 09:05:46 51°11.927 2°47.213 9.9 318 6.2 101320 100
2007-02-19 09:05:51 51°11.918 2°47.182 8.9 309 6.2 101320 100
2007-02-19 09:05:56 51°11.909 2°47.151 8.8 317 6.2 101320 100
2007-02-19 09:06:01 51°11.9 2°47.121 9.3 309 6.2 101320 100
2007-02-19 09:06:06 51°11.891 2°47.091 8.7 319 6.2 101320 100
2007-02-19 09:06:11 51°11.882 2°47.06 9 305 6.2 101320 100
2007-02-19 09:06:16 51°11.873 2°47.03 9.2 316 6.2 101310 100
2007-02-19 09:06:21 51°11.864 2°46.999 8.2 308 6.2 101310 100
2007-02-19 09:06:26 51°11.855 2°46.968 7.9 317 6.2 101310 100
2007-02-19 09:06:31 51°11.846 2°46.938 8.7 306 6.2 101310 100
2007-02-19 09:06:36 51°11.837 2°46.908 8.5 316 6.2 101310 100
2007-02-19 09:06:41 51°11.828 2°46.877 8.4 307 6.2 101310 100
2007-02-19 09:06:46 51°11.819 2°46.846 9.3 316 6.2 101310 100
2007-02-19 09:06:51 51°11.81 2°46.816 9 307 6.2 101310 100
2007-02-19 09:06:56 51°11.801 2°46.785 8.4 315 6.2 101310 100
2007-02-19 09:07:01 51°11.792 2°46.755 9 306 6.2 101310 100
2007-02-19 09:07:05 51°11.785 2°46.731 8 316 6.3 101310 100
2007-02-19 09:07:11 51°11.774 2°46.694 7.6 304 6.3 101310 100
2007-02-19 09:07:16 51°11.765 2°46.664 8.2 26 6.3 101310 100
2007-02-19 09:07:21 51°11.756 2°46.633 8.2 309 6.3 101310 100
2007-02-19 09:07:26 51°11.747 2°46.602 8.7 316 6.2 101310 100
2007-02-19 09:07:31 51°11.738 2°46.572 8.7 283 6.2 101310 100
2007-02-19 09:07:36 51°11.729 2°46.541 8.4 316 6.2 101310 100
2007-02-19 09:07:41 51°11.719 2°46.511 9.5 305 6.2 101310 100
2007-02-19 09:07:46 51°11.71 2°46.48 8.8 19 6.2 101320 100
2007-02-19 09:07:51 51°11.701 2°46.449 9.1 308 6.2 101320 100
2007-02-19 09:07:56 51°11.693 2°46.419 8.8 24 6.3 101310 100
2007-02-19 09:08:01 51°11.683 2°46.388 9 307 6.3 101310 100
2007-02-19 09:08:06 51°11.675 2°46.358 9.1 317 6.3 101310 100
2007-02-19 09:08:11 51°11.666 2°46.327 9 303 6.3 101310 100
2007-02-19 09:08:16 51°11.657 2°46.297 8.9 316 6.3 101300 100
2007-02-19 09:08:21 51°11.648 2°46.266 9.1 303 6.3 101300 100
2007-02-19 09:08:26 51°11.639 2°46.236 8.8 20 6.3 101310 100
2007-02-19 09:08:31 51°11.63 2°46.205 8.3 308 6.3 101310 100
2007-02-19 09:08:36 51°11.621 2°46.175 8.1 315 6.3 101310 100
2007-02-19 09:08:41 51°11.612 2°46.144 8.6 306 6.3 101310 100
2007-02-19 09:08:46 51°11.603 2°46.113 7.9 316 6.3 101310 100
2007-02-19 09:08:51 51°11.594 2°46.083 8.8 303 6.3 101310 100
2007-02-19 09:08:56 51°11.585 2°46.053 8.5 27 6.3 101310 100
2007-02-19 09:09:01 51°11.576 2°46.022 8.8 304 6.3 101310 100
2007-02-19 09:09:06 51°11.568 2°45.991 8.6 22 6.3 101310 100
2007-02-19 09:09:11 51°11.559 2°45.96 8.2 307 6.3 101310 100
2007-02-19 09:09:16 51°11.551 2°45.93 8.1 21 6.3 101310 100
2007-02-19 09:09:21 51°11.543 2°45.898 8.2 309 6.3 101310 100
2007-02-19 09:09:26 51°11.535 2°45.867 8.7 316 6.3 101310 100
2007-02-19 09:09:31 51°11.527 2°45.836 8.8 285 6.3 101310 100
2007-02-19 09:09:36 51°11.519 2°45.805 9.5 18 6.3 101310 100
2007-02-19 09:09:41 51°11.511 2°45.774 8.9 306 6.3 101310 100
2007-02-19 09:09:46 51°11.503 2°45.743 7.9 318 6.3 101310 100
2007-02-19 09:09:51 51°11.495 2°45.711 8.7 305 6.3 101310 100
2007-02-19 09:09:55 51°11.489 2°45.687 9.5 315 6.3 101310 100
2007-02-19 09:10:01 51°11.479 2°45.649 8.4 305 6.3 101310 100
2007-02-19 09:10:06 51°11.471 2°45.618 8.6 315 6.3 101310 100
2007-02-19 09:10:11 51°11.463 2°45.587 8.1 304 6.3 101310 100
2007-02-19 09:10:16 51°11.455 2°45.556 8.9 315 6.3 101310 100
2007-02-19 09:10:21 51°11.447 2°45.525 8.1 309 6.3 101310 100
2007-02-19 09:10:26 51°11.439 2°45.494 8.5 320 6.3 101310 100
2007-02-19 09:10:31 51°11.431 2°45.463 8.6 303 6.3 101310 100
2007-02-19 09:10:36 51°11.423 2°45.432 8.5 316 6.3 101310 100
2007-02-19 09:10:41 51°11.415 2°45.402 8.3 307 6.3 101310 100
2007-02-19 09:10:46 51°11.407 2°45.37 8.1 316 6.3 101310 100
2007-02-19 09:10:51 51°11.4 2°45.339 8.3 303 6.3 101310 100
2007-02-19 09:10:56 51°11.391 2°45.308 7.8 26 6.3 101310 100
2007-02-19 09:11:01 51°11.384 2°45.277 7.8 310 6.3 101310 100
2007-02-19 09:11:06 51°11.376 2°45.247 9 316 6.3 101310 100
2007-02-19 09:11:11 51°11.367 2°45.216 9.1 303 6.3 101310 100
2007-02-19 09:11:16 51°11.359 2°45.185 9.2 315 6.3 101310 100
2007-02-19 09:11:21 51°11.351 2°45.154 10.1 306 6.3 101310 100
2007-02-19 09:11:26 51°11.343 2°45.123 9.2 315 6.3 101310 100
2007-02-19 09:11:31 51°11.335 2°45.092 8.9 281 6.3 101310 100
2007-02-19 09:11:36 51°11.327 2°45.061 9.1 315 6.3 101310 100
2007-02-19 09:11:41 51°11.319 2°45.03 8.6 305 6.3 101310 100
2007-02-19 09:11:46 51°11.311 2°45 8.5 24 6.3 101310 100
2007-02-19 09:11:51 51°11.303 2°44.969 7.8 306 6.3 101310 100
2007-02-19 09:11:56 51°11.295 2°44.938 8.2 23 6.3 101310 100
2007-02-19 09:12:01 51°11.287 2°44.907 8.5 304 6.3 101310 100
2007-02-19 09:12:06 51°11.28 2°44.876 8.1 316 6.3 101310 100
2007-02-19 09:12:11 51°11.272 2°44.844 8.3 305 6.3 101310 100
2007-02-19 09:12:15 51°11.266 2°44.819 8.1 316 6.3 101310 100
2007-02-19 09:12:21 51°11.257 2°44.782 7.5 308 6.3 101310 100
2007-02-19 09:12:26 51°11.25 2°44.75 7.7 318 6.3 101300 100
2007-02-19 09:12:31 51°11.243 2°44.719 9.3 308 6.3 101300 100
2007-02-19 09:12:36 51°11.235 2°44.688 8.6 316 6.3 101320 100
2007-02-19 09:12:41 51°11.228 2°44.657 8.4 306 6.3 101320 100
2007-02-19 09:12:46 51°11.22 2°44.625 8.4 316 6.3 101310 100
2007-02-19 09:12:51 51°11.213 2°44.594 8.5 308 6.3 101310 100
2007-02-19 09:12:56 51°11.206 2°44.563 7.8 318 6.3 101320 100
2007-02-19 09:13:01 51°11.199 2°44.531 7.9 304 6.3 101320 100
2007-02-19 09:13:06 51°11.192 2°44.5 8.4 317 6.3 101310 100
2007-02-19 09:13:11 51°11.186 2°44.468 8.1 308 6.3 101310 100
2007-02-19 09:13:16 51°11.179 2°44.436 8.4 21 6.3 101320 100
2007-02-19 09:13:21 51°11.172 2°44.405 8.6 306 6.3 101320 100
2007-02-19 09:13:26 51°11.166 2°44.373 8.5 316 6.4 101320 100
2007-02-19 09:13:31 51°11.16 2°44.342 8.1 279 6.4 101320 100
2007-02-19 09:13:36 51°11.153 2°44.31 7.9 19 6.3 101310 100
2007-02-19 09:13:41 51°11.146 2°44.278 8.3 305 6.3 101310 100
2007-02-19 09:13:46 51°11.139 2°44.247 9.2 316 6.3 101310 100
2007-02-19 09:13:51 51°11.132 2°44.215 8.7 306 6.3 101310 100
2007-02-19 09:13:56 51°11.126 2°44.184 8.3 316 6.3 101310 100
2007-02-19 09:14:01 51°11.119 2°44.152 8.8 309 6.3 101310 100
2007-02-19 09:14:06 51°11.112 2°44.12 8.7 317 6.3 101310 100
2007-02-19 09:14:11 51°11.106 2°44.089 7.5 304 6.3 101310 100
2007-02-19 09:14:16 51°11.099 2°44.057 7.7 316 6.3 101310 100
2007-02-19 09:14:21 51°11.092 2°44.025 8 310 6.3 101310 100
2007-02-19 09:14:26 51°11.085 2°43.994 7.3 315 6.3 101320 100
2007-02-19 09:14:31 51°11.079 2°43.962 7.1 305 6.3 101320 100
2007-02-19 09:14:36 51°11.072 2°43.93 7.8 316 6.4 101320 100
2007-02-19 09:14:41 51°11.066 2°43.899 8.6 304 6.4 101320 100
2007-02-19 09:14:46 51°11.059 2°43.867 8 316 6.4 101320 100
2007-02-19 09:14:51 51°11.052 2°43.835 8.7 308 6.4 101320 100
2007-02-19 09:14:56 51°11.046 2°43.804 8.2 315 6.4 101310 100
2007-02-19 09:15:01 51°11.039 2°43.772 7 307 6.4 101310 100
2007-02-19 09:15:06 51°11.033 2°43.74 8.1 317 6.4 101310 100
2007-02-19 09:15:11 51°11.026 2°43.709 8.2 306 6.4 101310 100
2007-02-19 09:15:16 51°11.02 2°43.677 7.9 316 6.4 101310 100
2007-02-19 09:15:21 51°11.013 2°43.645 7.5 307 6.4 101310 100
2007-02-19 09:15:26 51°11.007 2°43.614 7.2 316 6.4 101310 100
2007-02-19 09:15:31 51°11 2°43.582 8.2 286 6.4 101310 100
2007-02-19 09:15:36 51°10.994 2°43.55 8.4 315 6.4 101310 100
2007-02-19 09:15:41 51°10.987 2°43.518 8.5 309 6.4 101310 100
2007-02-19 09:15:46 51°10.981 2°43.487 7.8 317 6.4 101310 100
2007-02-19 09:15:51 51°10.975 2°43.455 8.2 310 6.4 101310 100
2007-02-19 09:15:56 51°10.968 2°43.423 8 316 6.4 101310 100
2007-02-19 09:16:01 51°10.962 2°43.392 7.5 307 6.4 101310 100
2007-02-19 09:16:06 51°10.955 2°43.36 8.1 316 6.4 101310 100
2007-02-19 09:16:11 51°10.949 2°43.328 8 304 6.4 101310 100
2007-02-19 09:16:16 51°10.943 2°43.296 8.4 22 6.4 101310 100
2007-02-19 09:16:21 51°10.936 2°43.265 7.8 308 6.4 101310 100
2007-02-19 09:16:26 51°10.93 2°43.233 7.9 319 6.4 101310 100
2007-02-19 09:16:31 51°10.923 2°43.201 7.7 305 6.4 101310 100
2007-02-19 09:16:36 51°10.917 2°43.169 7.3 318 6.4 101310 100
2007-02-19 09:16:41 51°10.911 2°43.138 7.9 303 6.4 101310 100
2007-02-19 09:16:45 51°10.905 2°43.112 7.5 317 6.4 101310 100
2007-02-19 09:16:51 51°10.898 2°43.074 7.7 304 6.4 101310 100
2007-02-19 09:16:56 51°10.891 2°43.043 8 315 6.4 101310 100
2007-02-19 09:17:01 51°10.885 2°43.011 8.5 305 6.4 101310 100
2007-02-19 09:17:05 51°10.88 2°42.986 8.4 24 6.4 101310 100
2007-02-19 09:17:11 51°10.872 2°42.948 7.6 305 6.4 101310 100
2007-02-19 09:17:16 51°10.865 2°42.916 7.8 315 6.4 101310 100
2007-02-19 09:17:21 51°10.859 2°42.884 8.4 307 6.4 101310 100
2007-02-19 09:17:26 51°10.853 2°42.853 7.9 315 6.4 101310 100
2007-02-19 09:17:31 51°10.846 2°42.821 7.3 278 6.4 101310 100
2007-02-19 09:17:36 51°10.839 2°42.789 8.2 315 6.4 101310 100
2007-02-19 09:17:41 51°10.833 2°42.758 7.5 302 6.4 101310 100
2007-02-19 09:17:46 51°10.827 2°42.726 7.3 319 6.4 101310 100
2007-02-19 09:17:51 51°10.82 2°42.694 7.5 303 6.4 101310 100
2007-02-19 09:17:56 51°10.814 2°42.662 8.4 315 6.4 101310 100
2007-02-19 09:18:01 51°10.808 2°42.631 8.1 305 6.4 101310 100
2007-02-19 09:18:06 51°10.801 2°42.599 8.2 23 6.4 101310 100
2007-02-19 09:18:11 51°10.795 2°42.567 7.8 304 6.4 101310 100
2007-02-19 09:18:16 51°10.789 2°42.535 7.4 315 6.4 101310 100
2007-02-19 09:18:21 51°10.782 2°42.504 7.6 303 6.4 101310 100
2007-02-19 09:18:26 51°10.776 2°42.472 7.8 317 6.4 101310 100
2007-02-19 09:18:31 51°10.77 2°42.44 7.8 306 6.4 101310 100
2007-02-19 09:18:36 51°10.763 2°42.408 7.2 25 6.4 101310 100
2007-02-19 09:18:41 51°10.757 2°42.377 8.4 306 6.4 101310 100
2007-02-19 09:18:46 51°10.75 2°42.345 7.5 316 6.4 101310 100
2007-02-19 09:18:51 51°10.744 2°42.314 7.5 304 6.4 101310 100
2007-02-19 09:18:56 51°10.737 2°42.282 8.2 21 6.4 101310 100
2007-02-19 09:19:01 51°10.731 2°42.25 7.8 308 6.4 101310 100
2007-02-19 09:19:06 51°10.725 2°42.219 8.7 23 6.4 101300 100
2007-02-19 09:19:11 51°10.718 2°42.187 7.8 310 6.4 101300 100
2007-02-19 09:19:16 51°10.712 2°42.155 8.1 20 6.4 101310 100
2007-02-19 09:19:21 51°10.706 2°42.123 7.7 303 6.4 101310 100
2007-02-19 09:19:26 51°10.699 2°42.092 8.3 319 6.4 101300 100
2007-02-19 09:19:31 51°10.693 2°42.06 7.9 285 6.4 101300 100
2007-02-19 09:19:36 51°10.686 2°42.029 8.5 317 6.4 101310 100
2007-02-19 09:19:41 51°10.68 2°41.997 8.2 306 6.4 101310 100
2007-02-19 09:19:46 51°10.673 2°41.966 8.4 27 6.4 101300 100
2007-02-19 09:19:51 51°10.667 2°41.936 7.4 306 6.4 101300 100
2007-02-19 09:19:56 51°10.661 2°41.907 7.1 317 6.4 101310 100
2007-02-19 09:20:01 51°10.656 2°41.879 6.6 305 6.4 101310 100
2007-02-19 09:20:05 51°10.654 2°41.857 5.5 20 6.4 101310 100
2007-02-19 09:20:11 51°10.654 2°41.827 5.1 310 6.4 101310 100
2007-02-19 09:20:16 51°10.656 2°41.805 4.2 24 6.4 101310 100
2007-02-19 09:20:21 51°10.659 2°41.784 3.4 305 6.4 101310 100
2007-02-19 09:20:25 51°10.662 2°41.769 3.8 26 6.4 101310 100
2007-02-19 09:20:31 51°10.668 2°41.748 2.5 310 6.4 101310 100
2007-02-19 09:20:36 51°10.673 2°41.734 2.2 247 6.4 101320 100
2007-02-19 09:20:41 51°10.678 2°41.721 2.3 310 6.4 101320 100
2007-02-19 09:20:46 51°10.683 2°41.709 1.7 255 6.4 101330 100
2007-02-19 09:20:51 51°10.689 2°41.7 1.3 301 6.4 101330 100
2007-02-19 09:20:56 51°10.695 2°41.691 1.1 22 6.4 101330 100
2007-02-19 09:21:01 51°10.7 2°41.684 1.4 53 6.4 101330 100
2007-02-19 09:21:06 51°10.706 2°41.677 1.8 28 6.4 101320 100
2007-02-19 09:21:11 51°10.711 2°41.672 1.3 54 6.4 101320 100
2007-02-19 09:21:16 51°10.716 2°41.667 1.2 18 6.4 101330 100
2007-02-19 09:21:21 51°10.722 2°41.664 1 55 6.4 101330 100
2007-02-19 09:21:26 51°10.727 2°41.66 1.3 38 6.4 101320 100
2007-02-19 09:21:31 51°10.732 2°41.657 2.6 35 6.4 101320 100
2007-02-19 09:21:36 51°10.737 2°41.655 2.1 23 6.4 101330 100
2007-02-19 09:21:41 51°10.742 2°41.653 1.9 14 6.4 101330 100
2007-02-19 09:21:46 51°10.747 2°41.652 2.2 18 6.5 101330 100
2007-02-19 09:21:51 51°10.752 2°41.651 2.9 28 6.5 101330 100
2007-02-19 09:21:56 51°10.756 2°41.65 3 26 6.5 101330 100
2007-02-19 09:22:01 51°10.761 2°41.65 2.2 26 6.5 101330 100
2007-02-19 09:22:06 51°10.766 2°41.651 1.8 25 6.5 101320 100
2007-02-19 09:22:11 51°10.771 2°41.653 3 18 6.5 101320 100
2007-02-19 09:22:16 51°10.777 2°41.656 2.3 10 6.5 101330 100
2007-02-19 09:22:21 51°10.784 2°41.66 2.5 2 6.5 101330 100
2007-02-19 09:22:26 51°10.79 2°41.665 3 358 6.5 101320 100
2007-02-19 09:22:31 51°10.796 2°41.671 3.5 2 6.5 101320 100
2007-02-19 09:22:36 51°10.802 2°41.679 3.5 -999 6.5 101320 100
2007-02-19 09:22:41 51°10.807 2°41.688 4.1 357 6.5 101320 100
2007-02-19 09:22:46 51°10.813 2°41.697 4.1 356 6.5 101330 100
2007-02-19 09:22:51 51°10.819 2°41.707 4.1 360 6.5 101330 100
2007-02-19 09:22:56 51°10.825 2°41.717 3.7 358 6.5 101320 100
2007-02-19 09:23:01 51°10.832 2°41.726 3.2 359 6.5 101320 100
2007-02-19 09:23:06 51°10.839 2°41.734 3.4 -999 6.5 101330 100
2007-02-19 09:23:11 51°10.847 2°41.741 3.5 8 6.5 101330 100
2007-02-19 09:23:16 51°10.854 2°41.745 3.7 15 6.5 101320 100
2007-02-19 09:23:21 51°10.862 2°41.749 3.2 17 6.5 101320 100
2007-02-19 09:23:26 51°10.869 2°41.753 3 17 6.5 101320 100
2007-02-19 09:23:31 51°10.877 2°41.756 3 17 6.5 101320 100
2007-02-19 09:23:36 51°10.884 2°41.76 3.6 23 6.5 101320 100
2007-02-19 09:23:41 51°10.891 2°41.764 4.1 22 6.5 101320 100
2007-02-19 09:23:45 51°10.896 2°41.767 3.3 18 6.5 101330 100
2007-02-19 09:23:51 51°10.903 2°41.774 3.6 14 6.5 101330 100
2007-02-19 09:23:56 51°10.908 2°41.78 3.5 22 6.5 101320 100
2007-02-19 09:24:01 51°10.913 2°41.786 4.1 7 6.5 101320 100
2007-02-19 09:24:06 51°10.917 2°41.793 3.9 8 6.5 101320 100
2007-02-19 09:24:11 51°10.921 2°41.8 3.7 7 6.5 101320 100
2007-02-19 09:24:16 51°10.925 2°41.807 3.8 7 6.4 101330 100
2007-02-19 09:24:21 51°10.929 2°41.814 2.9 7 6.4 101330 100
2007-02-19 09:24:26 51°10.932 2°41.821 3.2 5 6.4 101320 100
2007-02-19 09:24:31 51°10.936 2°41.828 4.2 6 6.4 101320 100
2007-02-19 09:24:36 51°10.94 2°41.834 4.4 11 6.4 101330 100
2007-02-19 09:24:41 51°10.944 2°41.84 3.8 17 6.4 101330 100
2007-02-19 09:24:45 51°10.948 2°41.845 3.4 20 6.4 101330 100
2007-02-19 09:24:51 51°10.953 2°41.851 3.4 10 6.4 101330 100
2007-02-19 09:24:56 51°10.958 2°41.856 3 15 6.4 101320 100
2007-02-19 09:25:01 51°10.963 2°41.861 3.4 9 6.4 101320 100
2007-02-19 09:25:05 51°10.967 2°41.864 3.3 10 6.4 101320 100
2007-02-19 09:25:11 51°10.973 2°41.87 3.2 14 6.4 101320 100
2007-02-19 09:25:16 51°10.978 2°41.874 3.5 13 6.4 101330 100
2007-02-19 09:25:21 51°10.983 2°41.879 3.2 10 6.4 101330 100
2007-02-19 09:25:26 51°10.987 2°41.884 3.6 9 6.4 101330 100
2007-02-19 09:25:31 51°10.992 2°41.89 2.8 8 6.4 101330 100
2007-02-19 09:25:36 51°10.996 2°41.895 3.4 7 6.5 101330 100
2007-02-19 09:25:41 51°11.001 2°41.901 3.4 8 6.5 101330 100
2007-02-19 09:25:46 51°11.004 2°41.907 3.3 5 6.4 101320 100
2007-02-19 09:25:51 51°11.008 2°41.914 4 8 6.4 101320 100
2007-02-19 09:25:56 51°11.012 2°41.92 3.7 4 6.4 101320 100
2007-02-19 09:26:01 51°11.015 2°41.927 3.3 5 6.4 101320 100
2007-02-19 09:26:06 51°11.019 2°41.933 3.1 4 6.4 101330 100
2007-02-19 09:26:11 51°11.022 2°41.94 4.7 11 6.4 101330 100
2007-02-19 09:26:16 51°11.026 2°41.946 5.1 12 6.4 101320 100
2007-02-19 09:26:21 51°11.03 2°41.953 3.8 13 6.4 101320 100
2007-02-19 09:26:26 51°11.034 2°41.959 3.6 15 6.4 101320 100
2007-02-19 09:26:31 51°11.038 2°41.965 3.7 16 6.4 101320 100
2007-02-19 09:26:36 51°11.042 2°41.971 3.6 16 6.5 101320 100
2007-02-19 09:26:41 51°11.046 2°41.977 4.1 12 6.5 101320 100
2007-02-19 09:26:46 51°11.051 2°41.983 4.3 10 6.4 101320 100
2007-02-19 09:26:51 51°11.055 2°41.989 4.3 14 6.4 101320 100
2007-02-19 09:26:56 51°11.058 2°41.995 3.6 15 6.4 101320 100
2007-02-19 09:27:01 51°11.062 2°42.002 4 11 6.4 101320 100
2007-02-19 09:27:05 51°11.065 2°42.007 4.2 10 6.4 101330 100
2007-02-19 09:27:11 51°11.069 2°42.015 3.8 10 6.4 101330 100
2007-02-19 09:27:16 51°11.072 2°42.021 3 5 6.5 101320 100
2007-02-19 09:27:21 51°11.075 2°42.027 3.6 5 6.5 101320 100
2007-02-19 09:27:26 51°11.078 2°42.034 4.1 6 6.4 101320 100
2007-02-19 09:27:31 51°11.081 2°42.039 4.2 13 6.4 101320 100
2007-02-19 09:27:36 51°11.084 2°42.045 3.8 18 6.4 101320 100
2007-02-19 09:27:41 51°11.087 2°42.05 3.3 19 6.4 101320 100
2007-02-19 09:27:46 51°11.09 2°42.054 4 19 6.4 101320 100
2007-02-19 09:27:51 51°11.093 2°42.059 4.3 19 6.4 101320 100
2007-02-19 09:27:56 51°11.097 2°42.063 3.9 19 6.5 101320 100
2007-02-19 09:28:01 51°11.1 2°42.066 3.8 23 6.5 101320 100
2007-02-19 09:28:06 51°11.103 2°42.07 4.1 25 6.5 101320 100
2007-02-19 09:28:11 51°11.106 2°42.072 4.4 26 6.5 101320 100
2007-02-19 09:28:16 51°11.109 2°42.075 4.1 28 6.5 101320 100
2007-02-19 09:28:21 51°11.111 2°42.075 3.8 32 6.5 101320 100
2007-02-19 09:28:26 51°11.112 2°42.076 3.6 34 6.5 101320 100
2007-02-19 09:28:31 51°11.113 2°42.075 4 35 6.5 101320 100
2007-02-19 09:28:36 51°11.113 2°42.073 3.6 37 6.5 101320 100
2007-02-19 09:28:41 51°11.114 2°42.072 4.4 40 6.5 101320 100
2007-02-19 09:28:46 51°11.114 2°42.071 3.7 40 6.5 101330 100
2007-02-19 09:28:51 51°11.114 2°42.069 3.5 39 6.5 101330 100
2007-02-19 09:28:56 51°11.115 2°42.068 4 40 6.5 101320 100
2007-02-19 09:29:01 51°11.115 2°42.066 3.6 43 6.5 101320 100
2007-02-19 09:29:06 51°11.115 2°42.065 3.5 42 6.5 101320 100
2007-02-19 09:29:11 51°11.115 2°42.063 2.7 42 6.5 101320 100
2007-02-19 09:29:16 51°11.115 2°42.062 3.3 42 6.5 101320 100
2007-02-19 09:29:21 51°11.115 2°42.06 2.8 40 6.5 101320 100
2007-02-19 09:29:25 51°11.115 2°42.059 2.8 41 6.5 101320 100
2007-02-19 09:29:31 51°11.116 2°42.057 3.9 43 6.5 101320 100
2007-02-19 09:29:36 51°11.116 2°42.055 3.1 42 6.4 101320 100
2007-02-19 09:29:41 51°11.116 2°42.053 4 39 6.4 101320 100
2007-02-19 09:29:46 51°11.117 2°42.051 3.6 39 6.5 101320 100
2007-02-19 09:29:51 51°11.117 2°42.049 4.2 41 6.5 101320 100
2007-02-19 09:29:56 51°11.117 2°42.047 4 42 6.5 101320 100
2007-02-19 09:30:01 51°11.117 2°42.045 4 42 6.5 101320 100
2007-02-19 09:30:06 51°11.118 2°42.043 4.3 44 6.5 101320 100
2007-02-19 09:30:11 51°11.118 2°42.041 3.8 41 6.5 101320 100
2007-02-19 09:30:15 51°11.118 2°42.039 5 44 6.5 101320 100
2007-02-19 09:30:21 51°11.118 2°42.037 4 44 6.5 101320 100
2007-02-19 09:30:26 51°11.119 2°42.035 4.6 27 6.4 101320 100
2007-02-19 09:30:31 51°11.119 2°42.033 4.5 50 6.4 101320 100
2007-02-19 09:30:36 51°11.119 2°42.031 4.2 43 6.4 101320 100
2007-02-19 09:30:41 51°11.12 2°42.029 3.8 40 6.4 101320 100
2007-02-19 09:30:46 51°11.12 2°42.027 2.6 42 6.4 101320 100
2007-02-19 09:30:51 51°11.12 2°42.025 3.4 37 6.4 101320 100
2007-02-19 09:30:56 51°11.121 2°42.023 3.7 39 6.4 101320 100
2007-02-19 09:31:01 51°11.121 2°42.021 4.2 39 6.4 101320 100
2007-02-19 09:31:06 51°11.121 2°42.019 4.1 39 6.4 101320 100
2007-02-19 09:31:11 51°11.122 2°42.017 4.1 39 6.4 101320 100
2007-02-19 09:31:16 51°11.122 2°42.015 3.8 37 6.4 101320 100
2007-02-19 09:31:21 51°11.123 2°42.012 3.7 40 6.4 101320 100
2007-02-19 09:31:26 51°11.123 2°42.01 4.3 39 6.4 101320 100
2007-02-19 09:31:31 51°11.123 2°42.008 3.4 35 6.4 101320 100
2007-02-19 09:31:36 51°11.123 2°42.006 3.2 40 6.4 101320 100
2007-02-19 09:31:41 51°11.124 2°42.004 4.1 39 6.4 101320 100
2007-02-19 09:31:45 51°11.124 2°42.003 3.9 44 6.4 101320 100
2007-02-19 09:31:51 51°11.124 2°42 4.3 42 6.4 101320 100
2007-02-19 09:31:56 51°11.124 2°41.998 3.7 41 6.4 101320 100
2007-02-19 09:32:01 51°11.125 2°41.996 4.2 38 6.4 101320 100
2007-02-19 09:32:05 51°11.125 2°41.995 4.6 40 6.4 101310 100
2007-02-19 09:32:11 51°11.125 2°41.992 4.2 37 6.4 101310 100
2007-02-19 09:32:16 51°11.125 2°41.99 3.8 41 6.5 101320 100
2007-02-19 09:32:21 51°11.126 2°41.988 4.5 39 6.5 101320 100
2007-02-19 09:32:26 51°11.126 2°41.987 4.7 40 6.4 101320 100
2007-02-19 09:32:31 51°11.126 2°41.985 3.6 40 6.4 101320 100
2007-02-19 09:32:36 51°11.126 2°41.983 4.5 38 6.4 101310 100
2007-02-19 09:32:41 51°11.126 2°41.981 4.9 40 6.4 101310 100
2007-02-19 09:32:46 51°11.126 2°41.979 3.9 42 6.4 101310 100
2007-02-19 09:32:51 51°11.127 2°41.977 4.1 40 6.4 101310 100
2007-02-19 09:32:56 51°11.127 2°41.976 4.2 37 6.4 101310 100
2007-02-19 09:33:01 51°11.127 2°41.974 4.1 39 6.4 101310 100
2007-02-19 09:33:06 51°11.127 2°41.972 4 37 6.4 101310 100
2007-02-19 09:33:11 51°11.127 2°41.97 3.3 33 6.4 101310 100
2007-02-19 09:33:16 51°11.127 2°41.968 3.5 33 6.4 101310 100
2007-02-19 09:33:21 51°11.127 2°41.966 3.3 33 6.4 101310 100
2007-02-19 09:33:26 51°11.127 2°41.964 3.9 30 6.4 101320 100
2007-02-19 09:33:31 51°11.127 2°41.962 3.8 34 6.4 101320 100
2007-02-19 09:33:36 51°11.127 2°41.961 3.6 27 6.4 101310 100
2007-02-19 09:33:41 51°11.127 2°41.959 3 27 6.4 101310 100
2007-02-19 09:33:45 51°11.127 2°41.958 3.4 29 6.4 101320 100
2007-02-19 09:33:51 51°11.127 2°41.956 3.7 32 6.4 101320 100
2007-02-19 09:33:56 51°11.127 2°41.954 3.7 32 6.5 101310 100
2007-02-19 09:34:01 51°11.127 2°41.952 4.1 32 6.5 101310 100
2007-02-19 09:34:05 51°11.127 2°41.951 3.5 32 6.4 101310 100
2007-02-19 09:34:11 51°11.127 2°41.949 4 31 6.4 101310 100
2007-02-19 09:34:16 51°11.127 2°41.947 3.6 28 6.4 101310 100
2007-02-19 09:34:21 51°11.127 2°41.945 4 29 6.4 101310 100
2007-02-19 09:34:26 51°11.126 2°41.943 4.1 28 6.5 101310 100
2007-02-19 09:34:31 51°11.126 2°41.942 4.5 26 6.5 101310 100
2007-02-19 09:34:36 51°11.126 2°41.94 4.5 30 6.5 101310 100
2007-02-19 09:34:41 51°11.126 2°41.939 4.7 26 6.5 101310 100
2007-02-19 09:34:46 51°11.126 2°41.937 4.6 26 6.5 101310 100
2007-02-19 09:34:51 51°11.125 2°41.935 5 27 6.5 101310 100
2007-02-19 09:34:56 51°11.125 2°41.934 5.1 28 6.5 101310 100
2007-02-19 09:35:01 51°11.126 2°41.933 4.8 26 6.5 101310 100
2007-02-19 09:35:06 51°11.126 2°41.933 4.1 27 6.5 101310 100
2007-02-19 09:35:11 51°11.127 2°41.933 4.5 28 6.5 101310 100
2007-02-19 09:35:16 51°11.128 2°41.933 4.3 27 6.5 101310 100
2007-02-19 09:35:21 51°11.13 2°41.934 3.8 27 6.5 101310 100
2007-02-19 09:35:26 51°11.132 2°41.934 3.8 29 6.4 101310 100
2007-02-19 09:35:31 51°11.134 2°41.936 3 31 6.4 101310 100
2007-02-19 09:35:36 51°11.138 2°41.936 3 35 6.5 101310 100
2007-02-19 09:35:41 51°11.142 2°41.936 2.4 39 6.5 101310 100
2007-02-19 09:35:46 51°11.147 2°41.935 2 40 6.5 101310 100
2007-02-19 09:35:51 51°11.152 2°41.933 1.6 45 6.5 101310 100
2007-02-19 09:35:56 51°11.157 2°41.929 1.6 25 6.4 101310 100
2007-02-19 09:36:01 51°11.163 2°41.924 0.9 57 6.4 101310 100
2007-02-19 09:36:05 51°11.167 2°41.918 1.3 26 6.4 101310 100
2007-02-19 09:36:11 51°11.172 2°41.908 1.2 308 6.4 101310 100
2007-02-19 09:36:16 51°11.177 2°41.898 2.1 248 6.4 101310 100
2007-02-19 09:36:21 51°11.18 2°41.886 2.8 309 6.4 101310 100
2007-02-19 09:36:25 51°11.181 2°41.876 3.6 23 6.4 101310 100
2007-02-19 09:36:31 51°11.183 2°41.86 4.1 303 6.4 101310 100
2007-02-19 09:36:36 51°11.183 2°41.846 4.2 22 6.4 101310 100
2007-02-19 09:36:41 51°11.182 2°41.832 5.4 308 6.4 101310 100
2007-02-19 09:36:46 51°11.181 2°41.816 4.8 22 6.5 101310 100
2007-02-19 09:36:51 51°11.179 2°41.8 5 306 6.5 101310 100
2007-02-19 09:36:56 51°11.177 2°41.782 5 20 6.5 101310 100
2007-02-19 09:37:01 51°11.175 2°41.764 6.5 305 6.5 101310 100
2007-02-19 09:37:06 51°11.173 2°41.744 6.5 20 6.5 101300 100
2007-02-19 09:37:11 51°11.169 2°41.724 6.3 309 6.5 101300 100
2007-02-19 09:37:16 51°11.166 2°41.703 6.8 22 6.5 101310 100
2007-02-19 09:37:21 51°11.161 2°41.68 7.2 308 6.5 101310 100
2007-02-19 09:37:26 51°11.156 2°41.657 8.2 23 6.5 101300 100
2007-02-19 09:37:31 51°11.151 2°41.632 8.2 281 6.5 101300 100
2007-02-19 09:37:36 51°11.144 2°41.607 8.3 316 6.5 101300 100
2007-02-19 09:37:41 51°11.137 2°41.58 8.8 305 6.5 101300 100
2007-02-19 09:37:46 51°11.13 2°41.553 9.5 315 6.5 101290 100
2007-02-19 09:37:51 51°11.122 2°41.526 9.2 310 6.5 101290 100
2007-02-19 09:37:56 51°11.114 2°41.498 9.3 318 6.5 101290 100
2007-02-19 09:38:01 51°11.106 2°41.47 9.9 303 6.5 101290 100
2007-02-19 09:38:06 51°11.098 2°41.442 10 316 6.5 101290 100
2007-02-19 09:38:11 51°11.089 2°41.413 9.8 307 6.5 101290 100
2007-02-19 09:38:16 51°11.081 2°41.385 9.6 316 6.5 101290 100
2007-02-19 09:38:21 51°11.073 2°41.356 9.3 307 6.5 101290 100
2007-02-19 09:38:26 51°11.064 2°41.327 9.3 21 6.5 101290 100
2007-02-19 09:38:31 51°11.056 2°41.298 9.1 308 6.5 101290 100
2007-02-19 09:38:36 51°11.048 2°41.268 9.3 317 6.5 101280 100
2007-02-19 09:38:41 51°11.039 2°41.239 9.4 307 6.5 101280 100
2007-02-19 09:38:46 51°11.031 2°41.21 9.4 316 6.4 101280 100
2007-02-19 09:38:51 51°11.023 2°41.181 9.5 310 6.4 101280 100
2007-02-19 09:38:56 51°11.015 2°41.151 9.5 315 6.4 101290 100
2007-02-19 09:39:01 51°11.006 2°41.122 8.9 305 6.4 101290 100
2007-02-19 09:39:06 51°10.998 2°41.092 8.8 24 6.5 101290 100
2007-02-19 09:39:11 51°10.99 2°41.063 8.4 310 6.5 101290 100
2007-02-19 09:39:16 51°10.982 2°41.033 8.5 316 6.4 101290 100
2007-02-19 09:39:21 51°10.973 2°41.004 8.9 306 6.4 101290 100
2007-02-19 09:39:26 51°10.965 2°40.974 9.5 316 6.5 101290 100
2007-02-19 09:39:31 51°10.957 2°40.945 8.9 282 6.5 101290 100
2007-02-19 09:39:36 51°10.948 2°40.915 9.6 316 6.5 101290 100
2007-02-19 09:39:41 51°10.941 2°40.885 10.4 308 6.5 101290 100
2007-02-19 09:39:46 51°10.932 2°40.856 9.9 316 6.5 101290 100
2007-02-19 09:39:51 51°10.924 2°40.826 9.1 303 6.5 101290 100
2007-02-19 09:39:56 51°10.916 2°40.797 8.8 24 6.5 101290 100
2007-02-19 09:40:01 51°10.908 2°40.767 8.4 308 6.5 101290 100
2007-02-19 09:40:06 51°10.899 2°40.737 8.7 19 6.5 101290 100
2007-02-19 09:40:11 51°10.891 2°40.707 8.9 310 6.5 101290 100
2007-02-19 09:40:16 51°10.884 2°40.677 8.6 316 6.5 101280 100
2007-02-19 09:40:21 51°10.876 2°40.647 9.4 304 6.5 101280 100
2007-02-19 09:40:26 51°10.869 2°40.617 8.8 19 6.5 101290 100
2007-02-19 09:40:31 51°10.863 2°40.586 8.9 310 6.5 101290 100
2007-02-19 09:40:36 51°10.856 2°40.555 8.8 24 6.5 101280 100
2007-02-19 09:40:41 51°10.85 2°40.524 8.9 308 6.5 101280 100
2007-02-19 09:40:46 51°10.844 2°40.493 9.4 21 6.5 101280 100
2007-02-19 09:40:51 51°10.839 2°40.462 8.5 306 6.5 101280 100
2007-02-19 09:40:56 51°10.833 2°40.431 7.8 23 6.5 101280 100
2007-02-19 09:41:01 51°10.828 2°40.399 8.1 305 6.5 101280 100
2007-02-19 09:41:06 51°10.823 2°40.368 8.5 316 6.5 101290 100
2007-02-19 09:41:11 51°10.818 2°40.336 9.3 305 6.5 101290 100
2007-02-19 09:41:16 51°10.813 2°40.305 10.2 27 6.5 101290 100
2007-02-19 09:41:21 51°10.809 2°40.273 9.4 303 6.5 101290 100
2007-02-19 09:41:26 51°10.804 2°40.241 9 24 6.5 101290 100
2007-02-19 09:41:31 51°10.799 2°40.21 8.7 286 6.5 101290 100
2007-02-19 09:41:36 51°10.795 2°40.178 8.7 19 6.5 101280 100
2007-02-19 09:41:41 51°10.79 2°40.146 8.6 302 6.5 101280 100
2007-02-19 09:41:46 51°10.786 2°40.115 7.8 24 6.5 101280 100
2007-02-19 09:41:51 51°10.781 2°40.083 8.3 305 6.5 101280 100
2007-02-19 09:41:56 51°10.776 2°40.051 7.8 22 6.5 101280 100
2007-02-19 09:42:01 51°10.772 2°40.02 8.5 304 6.5 101280 100
2007-02-19 09:42:06 51°10.767 2°39.988 8 24 6.4 101290 100
2007-02-19 09:42:11 51°10.762 2°39.956 9.1 305 6.4 101290 100
2007-02-19 09:42:16 51°10.757 2°39.925 8.2 21 6.5 101290 100
2007-02-19 09:42:21 51°10.752 2°39.893 8.7 310 6.5 101290 100
2007-02-19 09:42:26 51°10.748 2°39.861 8.6 25 6.5 101280 100
2007-02-19 09:42:31 51°10.743 2°39.829 9 306 6.5 101280 100
2007-02-19 09:42:36 51°10.738 2°39.798 9.1 22 6.5 101280 100
2007-02-19 09:42:41 51°10.733 2°39.766 9.1 304 6.5 101280 100
2007-02-19 09:42:46 51°10.728 2°39.734 9.3 27 6.5 101280 100
2007-02-19 09:42:51 51°10.723 2°39.702 8.9 302 6.5 101280 100
2007-02-19 09:42:56 51°10.718 2°39.67 8.2 26 6.5 101280 100
2007-02-19 09:43:01 51°10.713 2°39.639 9 307 6.5 101280 100
2007-02-19 09:43:06 51°10.708 2°39.607 9.2 23 6.5 101280 100
2007-02-19 09:43:11 51°10.703 2°39.575 8.4 305 6.5 101280 100
2007-02-19 09:43:16 51°10.698 2°39.543 9 18 6.5 101280 100
2007-02-19 09:43:21 51°10.693 2°39.512 8.5 305 6.5 101280 100
2007-02-19 09:43:26 51°10.689 2°39.48 8.9 24 6.5 101280 100
2007-02-19 09:43:31 51°10.684 2°39.448 8.5 287 6.5 101280 100
2007-02-19 09:43:36 51°10.679 2°39.416 9.6 21 6.5 101280 100
2007-02-19 09:43:41 51°10.674 2°39.384 9.2 304 6.5 101280 100
2007-02-19 09:43:46 51°10.669 2°39.352 9.3 24 6.5 101280 100
2007-02-19 09:43:51 51°10.664 2°39.32 9.6 307 6.5 101280 100
2007-02-19 09:43:56 51°10.659 2°39.288 9.3 20 6.5 101280 100
2007-02-19 09:44:01 51°10.654 2°39.257 8.8 305 6.5 101280 100
2007-02-19 09:44:06 51°10.649 2°39.225 8.4 21 6.5 101280 100
2007-02-19 09:44:11 51°10.644 2°39.193 9.6 306 6.5 101280 100
2007-02-19 09:44:16 51°10.639 2°39.161 9.4 23 6.5 101280 100
2007-02-19 09:44:21 51°10.634 2°39.129 9.2 304 6.5 101280 100
2007-02-19 09:44:26 51°10.63 2°39.097 8.9 27 6.5 101280 100
2007-02-19 09:44:31 51°10.625 2°39.065 8.8 304 6.5 101280 100
2007-02-19 09:44:36 51°10.62 2°39.033 9.4 23 6.5 101280 100
2007-02-19 09:44:41 51°10.615 2°39.001 8.9 306 6.5 101280 100
2007-02-19 09:44:46 51°10.61 2°38.97 9.2 23 6.5 101280 100
2007-02-19 09:44:51 51°10.605 2°38.938 8.9 305 6.5 101280 100
2007-02-19 09:44:56 51°10.601 2°38.906 9 25 6.5 101280 100
2007-02-19 09:45:01 51°10.596 2°38.874 9 305 6.5 101280 100
2007-02-19 09:45:06 51°10.591 2°38.843 8.5 24 6.5 101280 100
2007-02-19 09:45:11 51°10.586 2°38.811 9.1 307 6.5 101280 100
2007-02-19 09:45:16 51°10.582 2°38.779 9.1 21 6.5 101290 100
2007-02-19 09:45:21 51°10.577 2°38.748 9.6 305 6.5 101290 100
2007-02-19 09:45:26 51°10.572 2°38.716 9.7 20 6.5 101280 100
2007-02-19 09:45:31 51°10.567 2°38.684 8.7 281 6.5 101280 100
2007-02-19 09:45:36 51°10.563 2°38.652 8.7 23 6.5 101280 100
2007-02-19 09:45:41 51°10.558 2°38.621 8.6 306 6.5 101280 100
2007-02-19 09:45:46 51°10.554 2°38.589 9 22 6.5 101270 100
2007-02-19 09:45:51 51°10.549 2°38.557 9.2 305 6.5 101270 100
2007-02-19 09:45:56 51°10.545 2°38.526 9.9 20 6.5 101280 100
2007-02-19 09:46:01 51°10.54 2°38.494 9.2 308 6.5 101280 100
2007-02-19 09:46:06 51°10.536 2°38.463 8.3 23 6.5 101280 100
2007-02-19 09:46:11 51°10.531 2°38.431 8.8 311 6.5 101280 100
2007-02-19 09:46:16 51°10.527 2°38.4 9.1 21 6.5 101280 100
2007-02-19 09:46:21 51°10.522 2°38.368 9 30 6.5 101280 100
2007-02-19 09:46:26 51°10.517 2°38.337 8.9 20 6.5 101280 100
2007-02-19 09:46:31 51°10.512 2°38.305 9 309 6.5 101280 100
2007-02-19 09:46:36 51°10.507 2°38.274 9 24 6.5 101280 100
2007-02-19 09:46:41 51°10.503 2°38.243 9.2 306 6.5 101280 100
2007-02-19 09:46:46 51°10.498 2°38.212 9.8 22 6.5 101280 100
2007-02-19 09:46:51 51°10.494 2°38.18 9.1 304 6.5 101280 100
2007-02-19 09:46:56 51°10.49 2°38.149 9 26 6.5 101280 100
2007-02-19 09:47:01 51°10.486 2°38.118 8.9 305 6.5 101280 100
2007-02-19 09:47:06 51°10.482 2°38.086 8.6 19 6.5 101280 100
2007-02-19 09:47:11 51°10.479 2°38.055 8.6 305 6.5 101280 100
2007-02-19 09:47:16 51°10.475 2°38.024 8.3 20 6.5 101280 100
2007-02-19 09:47:21 51°10.471 2°37.992 8.9 305 6.5 101280 100
2007-02-19 09:47:26 51°10.468 2°37.961 9 26 6.5 101280 100
2007-02-19 09:47:31 51°10.464 2°37.93 9.5 284 6.5 101280 100
2007-02-19 09:47:36 51°10.461 2°37.898 8.8 18 6.5 101280 100
2007-02-19 09:47:41 51°10.458 2°37.867 9 305 6.5 101280 100
2007-02-19 09:47:46 51°10.455 2°37.835 8.5 18 6.5 101280 100
2007-02-19 09:47:51 51°10.453 2°37.804 8 306 6.5 101280 100
2007-02-19 09:47:56 51°10.45 2°37.773 9.1 27 6.5 101280 100
2007-02-19 09:48:01 51°10.448 2°37.741 8.2 310 6.5 101280 100
2007-02-19 09:48:05 51°10.446 2°37.716 8.8 23 6.5 101280 100
2007-02-19 09:48:11 51°10.443 2°37.679 8.6 309 6.5 101280 100
2007-02-19 09:48:16 51°10.441 2°37.647 9 23 6.5 101290 100
2007-02-19 09:48:21 51°10.438 2°37.616 8.4 310 6.5 101290 100
2007-02-19 09:48:25 51°10.437 2°37.591 8.1 22 6.5 101280 100
2007-02-19 09:48:31 51°10.435 2°37.553 8.4 309 6.5 101280 100
2007-02-19 09:48:36 51°10.433 2°37.521 8.3 24 6.5 101280 100
2007-02-19 09:48:41 51°10.432 2°37.49 8.1 35 6.5 101280 100
2007-02-19 09:48:46 51°10.43 2°37.459 7.8 20 6.5 101280 100
2007-02-19 09:48:51 51°10.428 2°37.427 7.6 303 6.5 101280 100
2007-02-19 09:48:56 51°10.427 2°37.396 8.4 28 6.5 101280 100
2007-02-19 09:49:01 51°10.425 2°37.364 8.2 305 6.5 101280 100
2007-02-19 09:49:06 51°10.424 2°37.333 8.2 23 6.5 101280 100
2007-02-19 09:49:11 51°10.422 2°37.301 7.8 305 6.5 101280 100
2007-02-19 09:49:16 51°10.421 2°37.27 8 25 6.5 101280 100
2007-02-19 09:49:21 51°10.419 2°37.238 7.9 302 6.5 101280 100
2007-02-19 09:49:26 51°10.418 2°37.207 7.6 22 6.5 101280 100
2007-02-19 09:49:31 51°10.416 2°37.175 8.5 280 6.5 101280 100
2007-02-19 09:49:36 51°10.415 2°37.144 7.9 21 6.5 101290 100
2007-02-19 09:49:41 51°10.414 2°37.112 7.5 310 6.5 101290 100
2007-02-19 09:49:46 51°10.415 2°37.081 7.2 23 6.5 101280 100
2007-02-19 09:49:51 51°10.416 2°37.05 7.2 305 6.5 101280 100
2007-02-19 09:49:56 51°10.417 2°37.019 7.2 22 6.5 101290 100
2007-02-19 09:50:01 51°10.419 2°36.988 7 304 6.5 101290 100
2007-02-19 09:50:06 51°10.422 2°36.958 6.8 24 6.5 101290 100
2007-02-19 09:50:11 51°10.424 2°36.927 6.6 304 6.5 101290 100
2007-02-19 09:50:16 51°10.427 2°36.896 6.9 23 6.5 101290 100
2007-02-19 09:50:21 51°10.431 2°36.866 7.4 305 6.5 101290 100
2007-02-19 09:50:26 51°10.435 2°36.837 6.5 25 6.5 101290 100
2007-02-19 09:50:31 51°10.441 2°36.807 6.6 305 6.5 101290 100
2007-02-19 09:50:36 51°10.447 2°36.779 5.9 22 6.5 101290 100
2007-02-19 09:50:41 51°10.453 2°36.751 5.9 309 6.5 101290 100
2007-02-19 09:50:46 51°10.459 2°36.723 5.8 18 6.5 101290 100
2007-02-19 09:50:51 51°10.466 2°36.696 6.2 303 6.5 101290 100
2007-02-19 09:50:56 51°10.473 2°36.669 5.8 21 6.5 101300 100
2007-02-19 09:51:01 51°10.482 2°36.645 5.4 303 6.5 101300 100
2007-02-19 09:51:06 51°10.491 2°36.621 5.2 20 6.5 101300 100
2007-02-19 09:51:11 51°10.502 2°36.599 4.7 308 6.5 101300 100
2007-02-19 09:51:16 51°10.514 2°36.579 4.7 24 6.5 101300 100
2007-02-19 09:51:21 51°10.527 2°36.56 3.9 304 6.5 101300 100
2007-02-19 09:51:26 51°10.541 2°36.543 4 23 6.5 101300 100
2007-02-19 09:51:31 51°10.556 2°36.528 3.6 285 6.5 101300 100
2007-02-19 09:51:36 51°10.571 2°36.515 3.1 317 6.5 101310 100
2007-02-19 09:51:41 51°10.587 2°36.505 2.7 311 6.5 101310 100
2007-02-19 09:51:46 51°10.604 2°36.497 2.7 315 6.5 101310 100
2007-02-19 09:51:51 51°10.621 2°36.49 2.8 328 6.5 101310 100
2007-02-19 09:51:56 51°10.638 2°36.486 3.2 326 6.5 101310 100
2007-02-19 09:52:01 51°10.656 2°36.483 2.9 330 6.5 101310 100
2007-02-19 09:52:06 51°10.673 2°36.484 2.9 333 6.6 101320 100
2007-02-19 09:52:11 51°10.691 2°36.486 2.9 335 6.6 101320 100
2007-02-19 09:52:16 51°10.708 2°36.489 2.9 333 6.6 101310 100
2007-02-19 09:52:21 51°10.725 2°36.493 2.8 339 6.6 101310 100
2007-02-19 09:52:26 51°10.742 2°36.498 3.3 339 6.5 101320 100
2007-02-19 09:52:31 51°10.759 2°36.504 3.8 339 6.5 101320 100
2007-02-19 09:52:36 51°10.776 2°36.51 4 342 6.6 101320 100